Latest Weather Observations for Witchcliffe

IDW60801

Issued at 2:02 pm WST Thursday 2 April 2015 (issued every 30 minutes, with the page automatically refreshed every 10 minutes)

About weather observations | Map of weather stations | Latest weather observations for WA | Other Formats
Station Details ID: 009746 Name: WITCHCLIFFE Lat: -34.03 Lon: 115.10 Height: 80.0 m
Data from the previous 72 hours. | See also: Recent months at Witchcliffe
Date/Time
WST
Temp
°C
App
Temp
°C
Dew
Point
Rel
Hum
%
Delta-T
°C
Wind Press
QNH
hPa
Press
MSL
hPa
Rain
since 9 am
mm
Dir
 
Spd
km/h
Gust
km/h
Spd
kts
Gust
kts
02/02:00pm 22.7 20.6 9.8 44 7.0 SSW 11 20 6 11 1020.1 1019.9 0.0
02/01:30pm 22.7 21.6 8.4 40 7.6 N 4 7 2 4 1020.5 1020.3 0.0
02/01:00pm 22.4 21.6 8.1 40 7.5 ENE 2 6 1 3 1020.9 1020.7 0.0
02/12:30pm 22.0 20.3 8.5 42 7.2 SSE 7 13 4 7 1021.5 1021.3 0.0
02/12:00pm 22.8 22.0 9.6 43 7.1 E 4 11 2 6 1022.1 1021.9 0.0
02/11:30am 21.6 19.7 9.2 45 6.6 ENE 9 11 5 6 1022.6 1022.4 0.0
02/11:00am 22.2 20.4 10.7 48 6.3 NNE 11 19 6 10 1022.8 1022.6 0.0
02/10:30am 20.2 17.7 9.7 51 5.6 E 13 22 7 12 1023.0 1022.8 0.0
02/10:00am 19.3 16.7 9.2 52 5.3 ENE 13 19 7 10 1023.2 1023.0 0.0
02/09:30am 18.3 15.7 9.4 56 4.7 NE 13 26 7 14 1023.3 1023.1 0.0
02/09:00am 16.3 14.9 9.7 65 3.4 E 7 13 4 7 1023.6 1023.5 0.0
02/08:30am 14.1 12.8 9.9 76 2.2 E 7 13 4 7 1023.7 1023.6 0.0
02/08:00am 11.6 10.4 9.5 87 1.1 SE 6 9 3 5 1023.8 1023.7 0.0
02/07:30am 10.0 9.1 9.1 94 0.4 ESE 4 7 2 4 1023.9 1023.8 0.0
02/07:00am 8.9 8.5 8.1 95 0.4 CALM 0 0 0 0 1023.8 1023.7 0.0
02/06:30am 8.4 7.4 7.3 93 0.5 ESE 2 9 1 5 1023.8 1023.7 0.0
02/06:00am 8.8 6.9 7.4 91 0.7 ESE 7 11 4 6 1023.7 1023.6 0.0
02/05:30am 9.1 7.2 7.5 90 0.8 SE 7 9 4 5 1023.6 1023.5 0.0
02/05:00am 9.5 7.3 7.8 89 0.8 SE 9 13 5 7 1023.5 1023.3 0.0
02/04:30am 9.6 7.4 7.7 88 0.9 SE 9 13 5 7 1023.4 1023.2 0.0
02/04:00am 9.6 7.3 7.4 86 1.0 SE 9 11 5 6 1023.5 1023.3 0.0
02/03:30am 10.1 7.8 7.5 84 1.2 SE 9 13 5 7 1023.5 1023.3 0.0
02/03:00am 10.7 8.5 7.8 82 1.4 SE 9 17 5 9 1023.7 1023.6 0.0
02/02:30am 11.1 8.6 8.0 81 1.5 ESE 11 15 6 8 1023.9 1023.8 0.0
02/02:00am 11.1 8.9 8.0 81 1.5 SE 9 15 5 8 1024.2 1024.1 0.0
02/01:30am 11.4 9.6 8.1 80 1.6 SE 7 13 4 7 1024.5 1024.4 0.0
02/01:00am 11.5 9.3 8.0 79 1.7 SE 9 13 5 7 1024.6 1024.5 0.0
02/12:30am 11.5 9.8 8.2 80 1.6 SE 7 15 4 8 1024.7 1024.6 0.0
02/12:00am 11.5 9.4 8.2 80 1.6 SE 9 13 5 7 1024.7 1024.6 0.0
 
Date/Time
WST
Temp
°C
App
Temp
°C
Dew
Point
Rel
Hum
%
Delta-T
°C
Wind Press
QNH
hPa
Press
MSL
hPa
Rain
since 9 am
mm
Dir
 
Spd
km/h
Gust
km/h
Spd
kts
Gust
kts
01/11:30pm 11.9 9.4 8.4 79 1.7 SE 11 17 6 9 1024.8 1024.7 0.0
01/11:00pm 12.1 9.3 8.6 79 1.7 SE 13 20 7 11 1025.0 1024.9 0.0
01/10:30pm 12.4 10.0 8.7 78 1.8 SE 11 17 6 9 1025.2 1025.1 0.0
01/10:00pm 12.8 10.5 8.9 77 2.0 SE 11 19 6 10 1025.3 1025.2 0.0
01/09:30pm 13.2 10.5 9.1 76 2.1 SE 13 19 7 10 1025.4 1025.3 0.0
01/09:00pm 13.6 10.6 9.3 75 2.2 SE 15 20 8 11 1025.3 1025.2 0.0
01/08:30pm 14.0 10.7 9.4 74 2.3 SE 17 30 9 16 1025.1 1025.0 0.0
01/08:00pm 14.6 11.0 9.8 73 2.5 SE 19 30 10 16 1025.1 1025.0 0.0
01/07:30pm 15.2 12.0 10.0 71 2.7 SSE 17 24 9 13 1024.9 1024.8 0.0
01/07:00pm 15.8 12.3 10.1 69 3.0 SE 19 28 10 15 1024.6 1024.5 0.0
01/06:30pm 16.4 12.8 10.5 68 3.1 SSE 20 32 11 17 1024.3 1024.2 0.0
01/06:00pm 17.1 12.7 10.5 65 3.5 SSE 24 35 13 19 1024.0 1023.9 0.0
01/05:30pm 18.1 13.7 10.5 61 4.1 SSE 24 33 13 18 1023.7 1023.6 0.0
01/05:00pm 18.8 15.2 10.4 58 4.5 SSE 20 35 11 19 1023.5 1023.3 0.0
01/04:30pm 19.2 15.4 11.0 59 4.5 SSE 22 33 12 18 1023.6 1023.5 0.0
01/04:00pm 20.1 16.7 11.3 57 4.8 SE 20 32 11 17 1023.6 1023.5 0.0
01/03:30pm 20.2 16.7 10.9 55 5.1 SSE 20 32 11 17 1023.7 1023.6 0.0
01/03:00pm 20.0 16.1 10.7 55 5.1 SSE 22 35 12 19 1023.7 1023.6 0.0
01/02:30pm 19.2 15.6 10.5 57 4.7 SE 20 33 11 18 1024.2 1024.1 0.0
01/02:00pm 19.8 16.2 10.5 55 5.0 SSE 20 33 11 18 1024.5 1024.4 0.0
01/01:30pm 20.1 17.1 9.4 50 5.7 E 15 26 8 14 1024.6 1024.5 0.0
01/01:00pm 19.5 16.5 9.4 52 5.3 SE 15 24 8 13 1025.1 1025.0 0.0
01/12:30pm 19.4 16.0 9.3 52 5.3 E 17 26 9 14 1025.6 1025.5 0.0
01/12:00pm 19.3 15.6 9.5 53 5.2 ESE 19 30 10 16 1025.9 1025.8 0.0
01/11:30am 19.6 16.7 9.5 52 5.4 SE 15 26 8 14 1026.2 1026.1 0.0
01/11:00am 19.1 16.2 9.6 54 5.0 SE 15 26 8 14 1026.5 1026.4 0.0
01/10:30am 18.0 14.7 9.4 57 4.5 SE 17 26 9 14 1026.7 1026.6 0.0
01/10:00am 17.4 14.9 9.8 61 4.0 SE 13 20 7 11 1026.9 1026.8 0.0
01/09:30am 16.5 13.5 9.4 63 3.7 SE 15 20 8 11 1027.2 1027.1 0.0
01/09:00am 16.0 13.0 9.2 64 3.5 SE 15 28 8 15 1027.2 1027.1 0.2
01/08:30am 15.3 14.4 7.8 61 3.8 ESE 2 7 1 4 1026.9 1026.8 0.2
01/08:00am 14.7 14.1 7.5 62 3.5 CALM 0 0 0 0 1026.6 1026.5 0.2
01/07:30am 14.2 13.7 7.7 65 3.2 CALM 0 0 0 0 1026.3 1026.1 0.2
01/07:00am 14.1 13.5 7.4 64 3.3 CALM 0 0 0 0 1026.1 1025.9 0.2
01/06:30am 13.9 13.5 8.1 68 2.9 CALM 0 0 0 0 1025.8 1025.6 0.2
01/06:00am 13.5 13.0 7.9 69 2.8 CALM 0 0 0 0 1025.5 1025.3 0.2
01/05:30am 13.6 13.0 7.2 65 3.1 CALM 0 0 0 0 1025.3 1025.1 0.2
01/05:00am 15.0 12.9 6.6 57 4.1 SE 7 13 4 7 1025.1 1024.9 0.2
01/04:30am 15.8 13.1 7.3 57 4.2 SSE 11 17 6 9 1024.9 1024.7 0.2
01/04:00am 15.8 13.4 8.8 63 3.6 SSE 11 17 6 9 1024.8 1024.6 0.2
01/03:30am 16.0 13.2 8.7 62 3.7 SSE 13 17 7 9 1024.7 1024.5 0.2
01/03:00am 15.8 13.0 8.5 62 3.7 SSE 13 19 7 10 1024.6 1024.4 0.2
01/02:30am 15.8 13.6 7.8 59 4.0 SE 9 15 5 8 1024.5 1024.3 0.2
01/02:00am 16.0 13.5 8.0 59 4.0 SSE 11 17 6 9 1024.4 1024.2 0.2
01/01:30am 16.0 12.8 8.5 61 3.8 SSE 15 19 8 10 1024.3 1024.1 0.2
01/01:00am 15.8 13.9 9.2 65 3.4 SSE 9 13 5 7 1024.3 1024.1 0.2
01/12:30am 15.9 13.6 8.9 63 3.6 S 11 15 6 8 1024.1 1023.9 0.2
01/12:00am 15.9 13.5 8.6 62 3.7 S 11 17 6 9 1023.9 1023.7 0.2
 
Date/Time
WST
Temp
°C
App
Temp
°C
Dew
Point
Rel
Hum
%
Delta-T
°C
Wind Press
QNH
hPa
Press
MSL
hPa
Rain
since 9 am
mm
Dir
 
Spd
km/h
Gust
km/h
Spd
kts
Gust
kts
31/11:30pm 15.8 12.6 8.5 62 3.7 S 15 20 8 11 1023.8 1023.6 0.2
31/11:00pm 15.1 12.7 8.6 65 3.3 S 11 13 6 7 1023.8 1023.6 0.2
31/10:30pm 14.1 12.4 8.5 69 2.8 S 7 9 4 5 1023.8 1023.6 0.2
31/10:00pm 13.4 11.8 7.8 69 2.8 SSW 6 9 3 5 1023.9 1023.7 0.2
31/09:30pm 14.3 12.1 8.0 66 3.1 S 9 13 5 7 1023.7 1023.5 0.2
31/09:00pm 14.1 12.0 8.1 67 3.0 S 9 13 5 7 1023.4 1023.2 0.2
31/08:30pm 14.6 12.5 8.3 66 3.2 S 9 13 5 7 1023.1 1022.9 0.2
31/08:00pm 14.8 12.0 8.5 66 3.2 S 13 17 7 9 1023.0 1022.8 0.2
31/07:30pm 15.0 11.9 8.9 67 3.1 SSE 15 20 8 11 1022.5 1022.3 0.2
31/07:00pm 15.6 12.2 9.3 66 3.2 SSE 17 28 9 15 1021.9 1021.7 0.2
31/06:30pm 16.3 12.1 9.7 65 3.5 SSE 22 33 12 18 1021.5 1021.2 0.2
31/06:00pm 17.1 13.0 10.0 63 3.7 SE 22 35 12 19 1021.1 1020.8 0.2
31/05:30pm 17.4 13.0 10.3 63 3.8 SE 24 37 13 20 1020.8 1020.5 0.2
31/05:00pm 18.0 13.3 10.6 62 4.0 SE 26 39 14 21 1020.2 1019.9 0.2
31/04:30pm 18.9 14.1 11.7 63 4.0 SE 28 44 15 24 1019.9 1019.7 0.2
31/04:00pm 18.8 14.5 12.1 65 3.7 SE 26 39 14 21 1019.4 1019.2 0.2
31/03:30pm 18.8 14.6 12.3 66 3.6 SSE 26 43 14 23 1019.2 1019.0 0.2
31/03:00pm 19.1 14.9 13.5 70 3.2 SE 28 41 15 22 1018.9 1018.7 0.2
31/02:30pm 19.8 17.1 15.7 77 2.4 SSE 24 37 13 20 1018.6 1018.4 0.2
31/02:00pm 18.5 17.2 17.2 92 0.8 SE 20 32 11 17 1018.6 1018.4 0.2
31/01:30pm 18.6 17.0 17.4 93 0.7 SSE 22 30 12 16 1018.5 1018.3 0.2
31/01:00pm 19.0 16.6 15.5 80 2.1 S 22 32 12 17 1018.4 1018.2 0.0
31/12:30pm 21.4 20.1 15.9 71 3.3 S 17 22 9 12 1018.1 1017.9 0.0
31/12:00pm 20.2 18.6 16.4 79 2.3 SSW 20 32 11 17 1018.3 1018.1 0.0
31/11:30am 22.4 21.3 14.3 60 4.8 SW 13 22 7 12 1018.1 1017.9 0.0
31/11:00am 21.3 19.0 14.2 64 4.1 SSW 19 30 10 16 1018.3 1018.1 0.0
31/10:30am 22.2 20.5 14.6 62 4.5 SW 17 28 9 15 1018.3 1018.1 0.0
31/10:00am 20.7 19.5 13.9 65 3.9 SW 13 22 7 12 1018.1 1017.9 0.0
31/09:30am 21.1 20.3 15.0 68 3.6 SW 13 20 7 11 1018.1 1017.9 0.0
31/09:00am 19.8 21.1 17.6 87 1.4 SSW 7 13 4 7 1018.0 1017.8 1.2
31/08:30am 18.7 21.8 18.7 100 0.0 CALM 0 0 0 0 1018.0 1017.8 1.2
31/08:00am 17.1 19.5 17.1 100 0.0 CALM 0 0 0 0 1017.9 1017.7 1.2
31/07:30am 16.8 19.1 16.8 100 0.0 CALM 0 0 0 0 1017.6 1017.4 1.2
31/07:00am 16.7 19.0 16.7 100 0.0 CALM 0 0 0 0 1017.4 1017.2 1.2
31/06:30am 16.7 19.0 16.7 100 0.0 CALM 0 0 0 0 1017.3 1017.1 0.8
31/06:00am 16.4 18.6 16.4 100 0.0 CALM 0 0 0 0 1017.0 1016.8 0.8
31/05:30am 16.6 18.8 16.6 100 0.0 CALM 0 0 0 0 1016.8 1016.6 0.6
31/05:00am 16.4 18.5 16.2 99 0.1 CALM 0 6 0 3 1016.6 1016.4 0.6
31/04:30am 16.3 17.6 16.1 99 0.1 W 4 11 2 6 1016.6 1016.4 0.0
31/04:00am 15.5 16.9 15.3 99 0.1 NNW 2 7 1 4 1016.4 1016.2 0.0
31/03:30am 16.1 17.9 15.6 97 0.3 CALM 0 6 0 3 1016.4 1016.2 0.0
31/03:00am 15.0 16.1 13.5 91 0.8 CALM 0 0 0 0 1016.3 1016.1 0.0
31/02:30am 15.9 16.8 14.1 89 1.0 NW 2 7 1 4 1016.5 1016.3 0.0
31/02:00am 16.5 16.8 14.9 90 0.9 WNW 7 13 4 7 1016.9 1016.7 0.0
31/01:30am 16.1 17.2 14.5 90 0.9 NNW 2 7 1 4 1017.1 1016.9 0.0
31/01:00am 16.2 17.9 15.1 93 0.6 CALM 0 4 0 2 1017.3 1017.1 0.0
31/12:30am 15.5 15.8 14.5 94 0.6 N 6 7 3 4 1017.2 1017.0 0.0
31/12:00am 15.1 16.5 14.5 96 0.3 CALM 0 0 0 0 1017.2 1017.0 0.0
 
Date/Time
WST
Temp
°C
App
Temp
°C
Dew
Point
Rel
Hum
%
Delta-T
°C
Wind Press
QNH
hPa
Press
MSL
hPa
Rain
since 9 am
mm
Dir
 
Spd
km/h
Gust
km/h
Spd
kts
Gust
kts
30/11:30pm 14.4 15.6 13.8 96 0.3 CALM 0 0 0 0 1017.2 1017.0 0.0
30/11:00pm 13.2 13.5 12.1 93 0.6 WSW 2 7 1 4 1017.3 1017.1 0.0
30/10:30pm 14.0 14.9 12.9 93 0.6 CALM 0 0 0 0 1017.3 1017.1 0.0
30/10:00pm 13.9 14.6 12.1 89 1.0 CALM 0 0 0 0 1017.5 1017.3 0.0
30/09:30pm 14.7 14.5 12.9 89 1.0 SSW 6 9 3 5 1017.3 1017.1 0.0
30/09:00pm 14.9 15.7 12.6 86 1.3 CALM 0 0 0 0 1017.5 1017.3 0.0
30/08:30pm 15.3 16.2 13.0 86 1.3 CALM 0 0 0 0 1017.7 1017.5 0.0
30/08:00pm 15.9 16.7 12.6 81 1.8 CALM 0 0 0 0 1017.6 1017.4 0.0
30/07:30pm 16.1 16.9 12.7 80 1.9 CALM 0 0 0 0 1017.3 1017.1 0.0
30/07:00pm 17.0 17.8 12.5 75 2.5 CALM 0 0 0 0 1017.2 1017.0 0.0
30/06:30pm 18.3 19.1 12.7 70 3.1 CALM 0 6 0 3 1017.1 1016.9 0.0
30/06:00pm 19.1 18.6 12.8 67 3.5 SW 7 11 4 6 1017.3 1017.1 0.0
30/05:30pm 19.7 18.5 12.9 65 3.9 SW 11 19 6 10 1016.8 1016.6 0.0
30/05:00pm 20.2 18.7 13.2 64 4.0 SW 13 22 7 12 1016.4 1016.2 0.0
30/04:30pm 20.7 18.9 13.2 62 4.3 SW 15 24 8 13 1016.1 1015.9 0.0
30/04:00pm 21.0 18.8 13.4 62 4.4 SW 17 22 9 12 1016.0 1015.8 0.0
30/03:30pm 21.9 19.8 13.5 59 4.9 SW 17 30 9 16 1016.1 1015.9 0.0
30/03:00pm 22.5 20.6 14.1 59 4.9 WSW 17 24 9 13 1015.8 1015.6 0.0
30/02:30pm 22.4 20.8 14.0 59 4.9 W 15 22 8 12 1015.9 1015.7 0.0

Other Formats:

Comma delimited format used in spreadsheet applications
http://www.bom.gov.au/fwo/IDW60801/IDW60801.95641.axf

JavaScript Object Notation format (JSON) in row-major order
http://www.bom.gov.au/fwo/IDW60801/IDW60801.95641.json